Jakobshavn, Greenland
Current Conditions -  °F | °C
As of 8:50 AM on Saturday 22 Nov 2014 (Local Time) from BGJN Reporting Station
Scattered Clouds Scattered Clouds  
Wind Chill: 11°   Ceiling: Unl
Heat Index: 27°   Visibility: 6mi
Dew Point:   Wind: 26mph
Humidity: 47%   Direction: 90°E
Pressure: 29.59"   Gusts: NA
Location:  69.21°N, 51.09°W
Report Text: BGJN 221050Z 09023KT 9999 SCT240 M03/M13 Q1002
Loading
Personal Weather Stations






























Interactive Weather Map New forecast layout! Learn more

10-Day Weather Forecast

Advertisements
Track Severe Weather on mobile